Time;durP1;ratioP1;P1;durP2;ratioP2;P2;SDS_P1;SDS_P2;PMS_P1;PMS_P2;Temp;Humidity;BMP_temperature;BMP_pressure;BME280_temperature;BME280_humidity;BME280_pressure;Samples;Min_cycle;Max_cycle;Signal;HPM_P1;HPM_P2
2022/12/13 00:01:37;;;;;;;;;;;;;;;-4.82;100.00;101277.47;5062613;28;20388;-71
2022/12/13 00:04:04;;;;;;;;;;;;;;;-4.80;100.00;101279.25;5064180;28;20604;-71
2022/12/13 00:06:32;;;;;;;;;;;;;;;-4.81;100.00;101274.94;5029498;28;20023;-70
2022/12/13 00:08:58;;;;;;;;;;;;;;;-4.82;100.00;101273.19;5065489;28;20418;-71
2022/12/13 00:11:23;;;;;;;;;;;;;;;-4.84;100.00;101264.53;5044004;28;19951;-71
2022/12/13 00:13:49;;;;;;;;;;;;;;;-4.82;100.00;101267.13;5064491;28;19939;-70
2022/12/13 00:16:15;;;;;;;;;;;;;;;-4.80;100.00;101270.66;5043864;28;20004;-71
2022/12/13 00:18:40;;;;;;;;;;;;;;;-4.80;100.00;101260.31;5046164;28;20522;-71
2022/12/13 00:21:06;;;;;;;;;;;;;;;-4.81;100.00;101269.75;5045415;28;19974;-71
2022/12/13 00:23:32;;;;;;;;;;;;;;;-4.80;100.00;101268.91;5044422;28;19921;-71
2022/12/13 00:26:04;;;;;;;;;;;;;;;-4.80;100.00;101266.34;5045271;28;19930;-71
2022/12/13 00:28:31;;;;;;;;;;;;;;;-4.80;100.00;101268.06;5035466;28;21081;-71
2022/12/13 00:30:57;;;;;;;;;;;;;;;-4.81;100.00;101264.59;5061502;28;19932;-71
2022/12/13 00:33:23;;;;;;;;;;;;;;;-4.81;100.00;101262.00;5065946;28;19928;-71
2022/12/13 00:35:48;;;;;;;;;;;;;;;-4.76;100.00;101262.13;5047467;28;19928;-70
2022/12/13 00:38:13;;;;;;;;;;;;;;;-4.74;100.00;101269.91;5065574;28;20051;-71
2022/12/13 00:40:39;;;;;;;;;;;;;;;-4.77;100.00;101266.44;5046226;28;19986;-71
2022/12/13 00:43:04;;;;;;;;;;;;;;;-4.79;100.00;101262.91;5045692;28;20301;-70
2022/12/13 00:45:29;;;;;;;;;;;;;;;-4.80;100.00;101265.47;5064958;28;19932;-71
2022/12/13 00:47:55;;;;;;;;;;;;;;;-4.81;100.00;101259.44;5065406;28;19928;-71
2022/12/13 00:50:20;;;;;;;;;;;;;;;-4.80;100.00;101266.34;5064761;28;20422;-71
2022/12/13 00:52:46;;;;;;;;;;;;;;;-4.85;100.00;101262.75;5063114;28;19936;-70
2022/12/13 00:55:11;;;;;;;;;;;;;;;-4.86;100.00;101261.00;5065069;28;19932;-70
2022/12/13 00:57:36;;;;;;;;;;;;;;;-4.87;100.00;101256.69;5065346;28;19933;-71
2022/12/13 01:00:03;;;;;;;;;;;;;;;-4.86;100.00;101261.00;5065032;28;19939;-70
2022/12/13 01:02:28;;;;;;;;;;;;;;;-4.88;100.00;101254.06;5063760;28;20019;-72
2022/12/13 01:04:53;;;;;;;;;;;;;;;-4.89;100.00;101249.72;5064710;28;19934;-71
2022/12/13 01:07:19;;;;;;;;;;;;;;;-4.89;100.00;101255.78;5065810;28;20029;-71
2022/12/13 01:09:44;;;;;;;;;;;;;;;-4.88;100.00;101251.47;5064020;28;19971;-72
2022/12/13 01:12:10;;;;;;;;;;;;;;;-4.90;100.00;101248.88;5060263;28;19939;-72
2022/12/13 01:14:36;;;;;;;;;;;;;;;-4.89;100.00;101252.31;5062593;28;19932;-72
2022/12/13 01:17:01;;;;;;;;;;;;;;;-4.92;100.00;101255.69;5048135;28;19955;-72
2022/12/13 01:19:27;;;;;;;;;;;;;;;-4.93;100.00;101253.94;5064574;28;20387;-72
2022/12/13 01:21:53;;;;;;;;;;;;;;;-4.94;100.00;101254.78;5046708;28;20271;-72
2022/12/13 01:24:20;;;;;;;;;;;;;;;-4.94;100.00;101257.38;5046211;28;20477;-72
2022/12/13 01:26:45;;;;;;;;;;;;;;;-4.95;100.00;101250.47;5063383;28;19928;-72
2022/12/13 01:29:11;;;;;;;;;;;;;;;-4.96;100.00;101253.88;5063486;28;19936;-72
2022/12/13 01:31:40;;;;;;;;;;;;;;;-4.97;100.00;101252.16;5062348;28;19928;-70
2022/12/13 01:34:09;;;;;;;;;;;;;;;-4.98;100.00;101255.53;5064443;28;19975;-70
2022/12/13 01:36:35;;;;;;;;;;;;;;;-5.01;100.00;101250.31;5043042;28;19928;-71
2022/12/13 01:39:00;;;;;;;;;;;;;;;-5.04;100.00;101248.50;5065258;28;19931;-70
2022/12/13 01:41:27;;;;;;;;;;;;;;;-5.08;100.00;101244.09;5065065;28;20025;-71
2022/12/13 01:43:53;;;;;;;;;;;;;;;-5.12;100.00;101248.31;5045212;28;19932;-70
2022/12/13 01:46:18;;;;;;;;;;;;;;;-5.12;100.00;101250.88;5063811;28;20505;-70
2022/12/13 01:48:49;;;;;;;;;;;;;;;-5.14;100.00;101244.81;5044726;28;19929;-70
2022/12/13 01:51:15;;;;;;;;;;;;;;;-5.14;100.00;101250.00;5045771;28;20630;-71
2022/12/13 01:53:40;;;;;;;;;;;;;;;-5.13;100.00;101245.72;5065035;28;19964;-71
2022/12/13 01:56:09;;;;;;;;;;;;;;;-5.12;100.00;101248.31;5053896;28;20023;-71
2022/12/13 01:58:35;;;;;;;;;;;;;;;-5.13;100.00;101246.56;5064486;28;19931;-71
2022/12/13 02:01:00;;;;;;;;;;;;;;;-5.12;100.00;101245.72;5045107;28;19928;-71
2022/12/13 02:03:26;;;;;;;;;;;;;;;-5.09;100.00;101243.25;5063953;28;19924;-70
2022/12/13 02:05:51;;;;;;;;;;;;;;;-5.08;100.00;101247.56;5064673;28;20341;-70
2022/12/13 02:08:18;;;;;;;;;;;;;;;-5.08;100.00;101244.97;5074187;28;20382;-71
2022/12/13 02:10:43;;;;;;;;;;;;;;;-5.10;100.00;101236.34;5069105;28;20287;-70
2022/12/13 02:13:09;;;;;;;;;;;;;;;-5.13;100.00;101238.81;5043332;28;19935;-70
2022/12/13 02:15:39;;;;;;;;;;;;;;;-5.15;100.00;101237.91;5062280;28;20745;-70
2022/12/13 02:18:04;;;;;;;;;;;;;;;-5.15;100.00;101235.34;5063828;28;19925;-70
2022/12/13 02:20:36;;;;;;;;;;;;;;;-5.18;100.00;101232.66;5067588;28;19970;-70
2022/12/13 02:23:04;;;;;;;;;;;;;;;-5.20;100.00;101231.75;5068415;28;20318;-71
2022/12/13 02:25:48;;;;;;;;;;;;;;;-5.24;100.00;101232.53;5068325;28;19935;-71
2022/12/13 02:28:40;;;;;;;;;;;;;;;-5.28;100.00;101235.84;5062850;28;19931;-71
2022/12/13 02:31:08;;;;;;;;;;;;;;;-5.28;100.00;101241.00;5038102;28;20002;-70
2022/12/13 02:33:48;;;;;;;;;;;;;;;-5.28;100.00;101239.31;5047558;28;19928;-70
2022/12/13 02:36:14;;;;;;;;;;;;;;;-5.27;100.00;101238.47;5066406;28;19932;-70
2022/12/13 02:38:48;;;;;;;;;;;;;;;-5.28;100.00;101228.09;5066727;28;20520;-71
2022/12/13 02:41:23;;;;;;;;;;;;;;;-5.30;100.00;101229.78;5066372;28;19928;-70
2022/12/13 02:44:08;;;;;;;;;;;;;;;-5.31;100.00;101231.47;5066839;28;20361;-70
2022/12/13 02:46:35;;;;;;;;;;;;;;;-5.33;100.00;101231.44;5064837;28;19959;-70
2022/12/13 02:49:01;;;;;;;;;;;;;;;-5.33;100.00;101223.69;5045670;28;20527;-70
2022/12/13 02:51:26;;;;;;;;;;;;;;;-5.32;100.00;101229.72;5047322;28;20023;-71
2022/12/13 02:53:52;;;;;;;;;;;;;;;-5.33;100.00;101234.00;5057040;28;19928;-70
2022/12/13 02:56:17;;;;;;;;;;;;;;;-5.33;100.00;101220.25;5046718;28;19935;-70
2022/12/13 02:58:44;;;;;;;;;;;;;;;-5.33;100.00;101228.00;5064928;28;19939;-71
2022/12/13 03:01:10;;;;;;;;;;;;;;;-5.31;100.00;101231.47;5054935;28;19928;-70
2022/12/13 03:03:38;;;;;;;;;;;;;;;-5.30;100.00;101229.78;5066108;28;19931;-71
2022/12/13 03:09:06;;;;;;;;;;;;;;;-5.25;100.00;101226.47;5066438;28;19935;-71
2022/12/13 03:14:19;;;;;;;;;;;;;;;-5.24;100.00;101229.94;5048917;28;19932;-72
2022/12/13 03:16:44;;;;;;;;;;;;;;;-5.25;100.00;101223.88;5047154;28;21059;-71
2022/12/13 03:19:09;;;;;;;;;;;;;;;-5.24;100.00;101219.63;5046094;28;19929;-71
2022/12/13 03:21:45;;;;;;;;;;;;;;;-5.26;100.00;101219.56;5046158;28;19928;-71
2022/12/13 03:24:11;;;;;;;;;;;;;;;-5.26;100.00;101218.69;5045999;28;20019;-71
2022/12/13 03:26:37;;;;;;;;;;;;;;;-5.26;100.00;101218.69;5047163;28;19930;-71
2022/12/13 03:29:02;;;;;;;;;;;;;;;-5.29;100.00;101219.47;5045285;28;19931;-71
2022/12/13 03:31:28;;;;;;;;;;;;;;;-5.30;100.00;101217.72;5050333;28;19986;-71
2022/12/13 03:33:53;;;;;;;;;;;;;;;-5.30;100.00;101222.03;5046831;28;19989;-70
2022/12/13 03:36:18;;;;;;;;;;;;;;;-5.29;100.00;101221.19;5054881;28;19932;-71
2022/12/13 03:38:44;;;;;;;;;;;;;;;-5.28;100.00;101212.63;5046687;28;20024;-71
2022/12/13 03:41:11;;;;;;;;;;;;;;;-5.29;100.00;101218.63;5065759;28;19936;-70
2022/12/13 03:43:37;;;;;;;;;;;;;;;-5.25;100.00;101218.72;5046244;28;19959;-70
2022/12/13 03:46:03;;;;;;;;;;;;;;;-5.22;100.00;101223.09;5046701;28;19977;-71
2022/12/13 03:48:28;;;;;;;;;;;;;;;-5.23;100.00;101218.78;5064368;28;19927;-70
2022/12/13 03:50:54;;;;;;;;;;;;;;;-5.24;100.00;101217.88;5064860;28;19928;-71
2022/12/13 03:53:20;;;;;;;;;;;;;;;-5.22;100.00;101215.34;5048786;28;19931;-70
2022/12/13 03:55:46;;;;;;;;;;;;;;;-5.24;100.00;101215.31;5065265;28;20443;-71
2022/12/13 03:58:11;;;;;;;;;;;;;;;-5.26;100.00;101216.09;5046530;28;20080;-70
2022/12/13 04:00:37;;;;;;;;;;;;;;;-5.29;100.00;101206.56;5061167;28;19932;-70
2022/12/13 04:03:02;;;;;;;;;;;;;;;-5.30;100.00;101211.72;5064639;28;19932;-71
2022/12/13 04:05:28;;;;;;;;;;;;;;;-5.33;100.00;101205.63;5064998;28;19928;-70
2022/12/13 04:07:54;;;;;;;;;;;;;;;-5.34;100.00;101205.59;5066025;28;19928;-70
2022/12/13 04:10:19;;;;;;;;;;;;;;;-5.35;100.00;101199.53;5054956;28;19933;-70
2022/12/13 04:15:28;;;;;;;;;;;;;;;-5.38;100.00;101204.66;5064694;28;21037;-70
2022/12/13 04:17:54;;;;;;;;;;;;;;;-5.39;100.00;101200.28;5065576;28;19932;-70
2022/12/13 04:20:19;;;;;;;;;;;;;;;-5.42;100.00;101192.47;5065923;28;19940;-71
2022/12/13 04:22:44;;;;;;;;;;;;;;;-5.46;100.00;101195.81;5065861;28;19931;-70
2022/12/13 04:25:10;;;;;;;;;;;;;;;-5.49;100.00;101188.00;5064873;28;20356;-70
2022/12/13 04:27:36;;;;;;;;;;;;;;;-5.47;100.00;101194.94;5048548;28;19934;-70
2022/12/13 04:30:03;;;;;;;;;;;;;;;-5.45;100.00;101184.66;5048629;28;19982;-70
2022/12/13 04:32:28;;;;;;;;;;;;;;;-5.46;100.00;101186.38;5046481;28;20374;-70
2022/12/13 04:34:54;;;;;;;;;;;;;;;-5.45;100.00;101187.25;5063503;28;21617;-70
2022/12/13 04:37:19;;;;;;;;;;;;;;;-5.43;100.00;101185.56;5064270;28;19939;-70
2022/12/13 04:39:44;;;;;;;;;;;;;;;-5.47;100.00;101178.56;5063166;28;19962;-70
2022/12/13 04:42:10;;;;;;;;;;;;;;;-5.46;100.00;101186.38;5063901;28;19920;-70
2022/12/13 04:44:35;;;;;;;;;;;;;;;-5.47;100.00;101178.56;5045483;28;19925;-70
2022/12/13 04:47:01;;;;;;;;;;;;;;;-5.48;100.00;101176.84;5063915;28;19928;-71
2022/12/13 04:49:27;;;;;;;;;;;;;;;-5.50;100.00;101173.34;5064666;28;19973;-70
2022/12/13 04:51:53;;;;;;;;;;;;;;;-5.52;100.00;101169.81;5065631;28;19932;-70
2022/12/13 04:54:18;;;;;;;;;;;;;;;-5.52;100.00;101162.97;5062199;28;19939;-70
2022/12/13 04:56:43;;;;;;;;;;;;;;;-5.54;100.00;101162.06;5065226;28;19932;-70
2022/12/13 04:59:08;;;;;;;;;;;;;;;-5.54;100.00;101159.50;5064913;28;19963;-70
2022/12/13 05:01:34;;;;;;;;;;;;;;;-5.55;100.00;101151.69;5063496;28;19928;-70
2022/12/13 05:04:01;;;;;;;;;;;;;;;-5.53;100.00;101161.22;5043662;28;20031;-70
2022/12/13 05:06:27;;;;;;;;;;;;;;;-5.51;100.00;101153.53;5045956;28;19935;-71
2022/12/13 05:08:52;;;;;;;;;;;;;;;-5.53;100.00;101153.50;5064607;28;19928;-71
2022/12/13 05:11:17;;;;;;;;;;;;;;;-5.52;100.00;101155.22;5048216;28;20303;-71
2022/12/13 05:13:43;;;;;;;;;;;;;;;-5.52;100.00;101154.34;5044031;28;19924;-72
2022/12/13 05:16:11;;;;;;;;;;;;;;;-5.54;100.00;101143.13;5054388;28;19929;-71
2022/12/13 05:18:36;;;;;;;;;;;;;;;-5.52;100.00;101146.59;5044991;28;20011;-71
2022/12/13 05:21:02;;;;;;;;;;;;;;;-5.52;100.00;101146.59;5038584;28;19977;-71
2022/12/13 05:23:28;;;;;;;;;;;;;;;-5.53;100.00;101150.91;5064652;28;19928;-71
2022/12/13 05:25:53;;;;;;;;;;;;;;;-5.53;100.00;101139.69;5063086;28;19967;-71
2022/12/13 05:28:19;;;;;;;;;;;;;;;-5.55;100.00;101139.69;5060040;28;19946;-71
2022/12/13 05:30:44;;;;;;;;;;;;;;;-5.54;100.00;101140.53;5045056;28;19921;-72
2022/12/13 05:33:10;;;;;;;;;;;;;;;-5.54;100.00;101141.44;5061912;28;19928;-72
2022/12/13 05:35:36;;;;;;;;;;;;;;;-5.54;100.00;101138.84;5063868;28;19928;-71
2022/12/13 05:38:01;;;;;;;;;;;;;;;-5.56;100.00;101142.22;5046760;28;20298;-70
2022/12/13 05:40:27;;;;;;;;;;;;;;;-5.57;100.00;101137.91;5044472;28;19924;-70
2022/12/13 05:42:53;;;;;;;;;;;;;;;-5.59;100.00;101146.47;5062147;28;21400;-70
2022/12/13 05:45:19;;;;;;;;;;;;;;;-5.57;100.00;101143.06;5062884;28;20048;-70
2022/12/13 05:47:44;;;;;;;;;;;;;;;-5.59;100.00;101143.00;5063650;28;19964;-71
2022/12/13 05:50:10;;;;;;;;;;;;;;;-5.63;100.00;101144.63;5051525;28;19967;-71
2022/12/13 05:52:35;;;;;;;;;;;;;;;-5.65;100.00;101148.91;5052685;28;19934;-71
2022/12/13 05:55:01;;;;;;;;;;;;;;;-5.63;100.00;101154.06;5043250;28;19924;-71
2022/12/13 05:57:26;;;;;;;;;;;;;;;-5.65;100.00;101151.47;5063119;28;19936;-71
2022/12/13 05:59:52;;;;;;;;;;;;;;;-5.66;100.00;101149.69;5044808;28;19967;-69
2022/12/13 06:02:17;;;;;;;;;;;;;;;-5.66;100.00;101151.41;5063619;28;19982;-69
2022/12/13 06:04:43;;;;;;;;;;;;;;;-5.65;100.00;101153.16;5061192;28;19975;-70
2022/12/13 06:07:09;;;;;;;;;;;;;;;-5.66;100.00;101160.00;5064740;28;19977;-72
2022/12/13 06:09:34;;;;;;;;;;;;;;;-5.65;100.00;101154.06;5063048;28;19928;-71
2022/12/13 06:11:59;;;;;;;;;;;;;;;-5.64;100.00;101154.91;5063756;28;19985;-71
2022/12/13 06:14:25;;;;;;;;;;;;;;;-5.65;100.00;101154.06;5062690;28;19932;-72
2022/12/13 06:16:51;;;;;;;;;;;;;;;-5.65;100.00;101156.63;5062751;28;19928;-71
2022/12/13 06:19:16;;;;;;;;;;;;;;;-5.64;100.00;101150.63;5063220;28;20497;-71
2022/12/13 06:21:42;;;;;;;;;;;;;;;-5.63;100.00;101157.53;5063434;28;19977;-71
2022/12/13 06:24:07;;;;;;;;;;;;;;;-5.59;100.00;101163.66;5063669;28;19924;-71
2022/12/13 06:26:33;;;;;;;;;;;;;;;-5.57;100.00;101156.81;5042982;28;19932;-71
2022/12/13 06:28:58;;;;;;;;;;;;;;;-5.55;100.00;101159.44;5063303;28;19916;-71
2022/12/13 06:31:24;;;;;;;;;;;;;;;-5.56;100.00;101155.97;5062947;28;20031;-71
2022/12/13 06:33:49;;;;;;;;;;;;;;;-5.54;100.00;101153.44;5063416;28;19929;-70
2022/12/13 06:36:15;;;;;;;;;;;;;;;-5.54;100.00;101156.03;5043345;28;19935;-71
2022/12/13 06:38:40;;;;;;;;;;;;;;;-5.51;100.00;101153.53;5061096;28;20022;-71
2022/12/13 06:41:07;;;;;;;;;;;;;;;-5.47;100.00;101152.75;5063426;28;19931;-71
2022/12/13 06:43:32;;;;;;;;;;;;;;;-5.45;100.00;101159.72;5063204;28;21444;-71
2022/12/13 06:45:57;;;;;;;;;;;;;;;-5.48;100.00;101162.22;5061681;28;19978;-71
2022/12/13 06:48:23;;;;;;;;;;;;;;;-5.53;100.00;101168.09;5045155;28;20515;-71
2022/12/13 06:50:48;;;;;;;;;;;;;;;-5.57;100.00;101169.72;5060965;28;19931;-70
2022/12/13 06:53:14;;;;;;;;;;;;;;;-5.59;100.00;101169.69;5062777;28;19973;-71
2022/12/13 06:55:39;;;;;;;;;;;;;;;-5.62;100.00;101164.44;5062887;28;19928;-71
2022/12/13 06:58:04;;;;;;;;;;;;;;;-5.65;100.00;101169.53;5046889;28;19935;-71
2022/12/13 07:00:30;;;;;;;;;;;;;;;-5.64;100.00;101168.69;5064197;28;20038;-71
2022/12/13 07:02:55;;;;;;;;;;;;;;;-5.64;100.00;101173.84;5064741;28;19963;-71
2022/12/13 07:05:21;;;;;;;;;;;;;;;-5.64;100.00;101170.38;5066411;28;19955;-71
2022/12/13 07:07:47;;;;;;;;;;;;;;;-5.63;100.00;101167.84;5066310;28;19985;-71
2022/12/13 07:10:12;;;;;;;;;;;;;;;-5.62;100.00;101164.44;5066151;28;19936;-70
2022/12/13 07:12:38;;;;;;;;;;;;;;;-5.61;100.00;101171.34;5067221;28;19932;-72
2022/12/13 07:15:04;;;;;;;;;;;;;;;-5.60;100.00;101162.75;5066523;28;19939;-71
2022/12/13 07:17:29;;;;;;;;;;;;;;;-5.62;100.00;101158.44;5066235;28;19971;-72
2022/12/13 07:19:55;;;;;;;;;;;;;;;-5.63;100.00;101164.38;5065543;28;20051;-76
2022/12/13 07:22:20;;;;;;;;;;;;;;;-5.63;100.00;101164.38;5048533;28;19927;-71
2022/12/13 07:24:45;;;;;;;;;;;;;;;-5.65;100.00;101166.94;5065349;28;20558;-71
2022/12/13 07:27:11;;;;;;;;;;;;;;;-5.63;100.00;101166.97;5063561;28;20015;-71
2022/12/13 07:29:36;;;;;;;;;;;;;;;-5.65;100.00;101168.66;5067138;28;19935;-72
2022/12/13 07:32:02;;;;;;;;;;;;;;;-5.66;100.00;101172.91;5047213;28;19929;-72
2022/12/13 07:34:27;;;;;;;;;;;;;;;-5.65;100.00;101174.69;5064002;28;19929;-72
2022/12/13 07:36:53;;;;;;;;;;;;;;;-5.63;100.00;101175.59;5055927;28;20452;-72
2022/12/13 07:39:18;;;;;;;;;;;;;;;-5.61;100.00;101173.06;5065595;28;19950;-70
2022/12/13 07:41:43;;;;;;;;;;;;;;;-5.60;100.00;101180.81;5065604;28;19967;-72
2022/12/13 07:44:09;;;;;;;;;;;;;;;-5.63;100.00;101174.72;5064807;28;20076;-72
2022/12/13 07:46:34;;;;;;;;;;;;;;;-5.63;100.00;101180.75;5065034;28;19971;-71
2022/12/13 07:49:00;;;;;;;;;;;;;;;-5.62;100.00;101179.06;5065117;28;20031;-70
2022/12/13 07:51:26;;;;;;;;;;;;;;;-5.63;100.00;101180.75;5066224;28;20306;-70
2022/12/13 07:53:51;;;;;;;;;;;;;;;-5.64;100.00;101186.75;5062183;28;19929;-71
2022/12/13 07:56:16;;;;;;;;;;;;;;;-5.65;100.00;101179.84;5063795;28;19924;-72
2022/12/13 07:58:42;;;;;;;;;;;;;;;-5.63;100.00;101183.34;5064546;28;19934;-71
2022/12/13 08:01:08;;;;;;;;;;;;;;;-5.65;100.00;101185.00;5045066;28;19930;-72
2022/12/13 08:03:34;;;;;;;;;;;;;;;-5.66;100.00;101195.28;5064851;28;19920;-72
2022/12/13 08:06:04;;;;;;;;;;;;;;;-5.65;100.00;101192.75;5061305;28;19951;-71
2022/12/13 08:08:29;;;;;;;;;;;;;;;-5.65;100.00;101194.44;5065939;28;19928;-71
2022/12/13 08:10:54;;;;;;;;;;;;;;;-5.64;100.00;101196.19;5065975;28;20333;-71
2022/12/13 08:13:20;;;;;;;;;;;;;;;-5.66;100.00;101203.88;5064172;28;19954;-72
2022/12/13 08:15:45;;;;;;;;;;;;;;;-5.65;100.00;101199.59;5063806;28;20346;-72
2022/12/13 08:18:11;;;;;;;;;;;;;;;-5.62;100.00;101208.31;5063833;28;19939;-71
2022/12/13 08:20:36;;;;;;;;;;;;;;;-5.60;100.00;101218.69;5064584;28;20054;-71
2022/12/13 08:23:02;;;;;;;;;;;;;;;-5.56;100.00;101206.72;5065400;28;19933;-71
2022/12/13 08:25:28;;;;;;;;;;;;;;;-5.54;100.00;101212.78;5055935;28;20387;-72
2022/12/13 08:27:53;;;;;;;;;;;;;;;-5.53;100.00;101199.06;5065432;28;20355;-71
2022/12/13 08:30:19;;;;;;;;;;;;;;;-5.53;100.00;101209.38;5065340;28;19928;-71
2022/12/13 08:32:44;;;;;;;;;;;;;;;-5.51;100.00;101207.72;5045407;28;20401;-71
2022/12/13 08:35:10;;;;;;;;;;;;;;;-5.51;100.00;101202.56;5043882;28;20062;-71
2022/12/13 08:37:35;;;;;;;;;;;;;;;-5.46;100.00;101203.53;5065733;28;19934;-71
2022/12/13 08:40:00;;;;;;;;;;;;;;;-5.43;100.00;101203.63;5064539;28;20440;-71
2022/12/13 08:42:26;;;;;;;;;;;;;;;-5.41;100.00;101211.44;5065457;28;19971;-72
2022/12/13 08:44:51;;;;;;;;;;;;;;;-5.39;100.00;101212.34;5036347;28;19924;-71
2022/12/13 08:47:17;;;;;;;;;;;;;;;-5.38;100.00;101220.13;5064933;28;20022;-71
2022/12/13 08:49:43;;;;;;;;;;;;;;;-5.37;100.00;101208.97;5037564;28;19975;-71
2022/12/13 08:52:08;;;;;;;;;;;;;;;-5.35;100.00;101216.72;5050019;28;20439;-71
2022/12/13 08:54:34;;;;;;;;;;;;;;;-5.35;100.00;101220.19;5046870;28;19932;-71
2022/12/13 08:56:59;;;;;;;;;;;;;;;-5.33;100.00;101207.34;5030319;28;23882;-71
2022/12/13 08:59:25;;;;;;;;;;;;;;;-5.32;100.00;101215.13;5042910;28;19951;-71
2022/12/13 09:01:51;;;;;;;;;;;;;;;-5.27;100.00;101216.94;5031353;28;19964;-72
2022/12/13 09:04:16;;;;;;;;;;;;;;;-5.25;100.00;101220.44;5047433;28;20146;-72
2022/12/13 09:06:42;;;;;;;;;;;;;;;-5.22;100.00;101220.53;5047313;28;19933;-72
2022/12/13 09:09:07;;;;;;;;;;;;;;;-5.19;100.00;101220.59;5027525;28;19932;-72
2022/12/13 09:11:33;;;;;;;;;;;;;;;-5.15;100.00;101229.28;5028032;28;20008;-73
2022/12/13 09:13:58;;;;;;;;;;;;;;;-5.10;100.00;101225.13;5024090;28;19929;-72
2022/12/13 09:16:24;;;;;;;;;;;;;;;-5.05;100.00;101234.72;5046000;28;19928;-71
2022/12/13 09:18:50;;;;;;;;;;;;;;;-5.01;100.00;101224.47;5026990;28;19951;-72
2022/12/13 09:21:16;;;;;;;;;;;;;;;-4.98;100.00;101234.88;5032103;28;19983;-71
2022/12/13 09:23:41;;;;;;;;;;;;;;;-4.94;100.00;101236.72;5048801;28;19935;-71
2022/12/13 09:26:07;;;;;;;;;;;;;;;-4.91;100.00;101239.34;5028763;28;19955;-72
2022/12/13 09:28:33;;;;;;;;;;;;;;;-4.87;100.00;101238.59;5045197;28;19958;-72
2022/12/13 09:30:59;;;;;;;;;;;;;;;-4.84;100.00;101230.94;5028082;28;19955;-72
2022/12/13 09:33:24;;;;;;;;;;;;;;;-4.81;100.00;101233.59;5045638;28;19928;-71
2022/12/13 09:35:50;;;;;;;;;;;;;;;-4.79;100.00;101226.75;5048922;28;21960;-71
2022/12/13 09:38:16;;;;;;;;;;;;;;;-4.75;100.00;101232.00;5048980;28;19959;-71
2022/12/13 09:40:42;;;;;;;;;;;;;;;-4.73;100.00;101222.56;5030538;28;19928;-71
2022/12/13 09:43:09;;;;;;;;;;;;;;;-4.70;100.00;101225.22;5030485;28;20431;-71
2022/12/13 09:45:35;;;;;;;;;;;;;;;-4.66;100.00;101221.88;5029967;28;19959;-70
2022/12/13 09:48:00;;;;;;;;;;;;;;;-4.63;100.00;101217.66;5031861;28;19973;-71
2022/12/13 09:50:27;;;;;;;;;;;;;;;-4.58;100.00;101219.47;5031426;28;21437;-71
2022/12/13 09:52:52;;;;;;;;;;;;;;;-4.53;100.00;101221.31;5028894;28;19967;-71
2022/12/13 09:55:23;;;;;;;;;;;;;;;-4.50;100.00;101208.47;5047986;28;19924;-72
2022/12/13 09:57:48;;;;;;;;;;;;;;;-4.45;100.00;101220.63;5038115;28;19924;-72
2022/12/13 10:00:15;;;;;;;;;;;;;;;-4.41;100.00;101214.69;5043129;28;19928;-72
2022/12/13 10:02:42;;;;;;;;;;;;;;;-4.38;100.00;101206.97;5063348;28;20367;-72
2022/12/13 10:05:12;;;;;;;;;;;;;;;-4.34;100.00;101206.22;5047965;28;19928;-71
2022/12/13 10:07:37;;;;;;;;;;;;;;;-4.32;100.00;101207.13;5044523;28;19974;-71
2022/12/13 10:10:03;;;;;;;;;;;;;;;-4.28;100.00;101202.88;5049622;28;20438;-71
2022/12/13 10:12:28;;;;;;;;;;;;;;;-4.25;100.00;101203.81;5045021;28;20458;-71
2022/12/13 10:14:56;;;;;;;;;;;;;;;-4.19;100.00;101208.28;5048615;28;19924;-71
2022/12/13 10:17:21;;;;;;;;;;;;;;;-4.12;100.00;101193.75;5064204;28;19963;-70
2022/12/13 10:19:50;;;;;;;;;;;;;;;-4.09;100.00;101194.69;5054520;28;19929;-71
2022/12/13 10:22:17;;;;;;;;;;;;;;;-4.03;100.00;101190.47;5054688;28;19929;-71
2022/12/13 10:24:46;;;;;;;;;;;;;;;-3.99;100.00;101190.56;5064574;28;19932;-71
2022/12/13 10:27:12;;;;;;;;;;;;;;;-3.96;100.00;101185.44;5064529;28;20011;-72
2022/12/13 10:29:57;;;;;;;;;;;;;;;-3.92;100.00;101175.19;5064152;28;20047;-71
2022/12/13 10:32:23;;;;;;;;;;;;;;;-3.86;100.00;101175.28;5059915;28;20074;-72
2022/12/13 10:34:48;;;;;;;;;;;;;;;-3.84;100.00;101174.50;5057821;28;20376;-72
2022/12/13 10:37:25;;;;;;;;;;;;;;;-3.82;100.00;101170.19;5047232;28;19970;-73
2022/12/13 10:39:50;;;;;;;;;;;;;;;-3.77;100.00;101161.66;5048963;28;19932;-72
2022/12/13 10:42:17;;;;;;;;;;;;;;;-3.74;100.00;101161.72;5050085;28;20500;-72
2022/12/13 10:44:42;;;;;;;;;;;;;;;-3.70;100.00;101156.63;5029428;28;20332;-72
2022/12/13 10:47:11;;;;;;;;;;;;;;;-3.65;100.00;101161.00;5044314;28;19966;-72
2022/12/13 10:49:38;;;;;;;;;;;;;;;-3.60;100.00;101157.66;5064017;28;19924;-73
2022/12/13 10:52:03;;;;;;;;;;;;;;;-3.56;100.00;101153.41;5057585;28;20382;-72
2022/12/13 10:54:30;;;;;;;;;;;;;;;-3.49;100.00;101149.22;5031527;28;19968;-72
2022/12/13 10:56:59;;;;;;;;;;;;;;;-3.45;100.00;101154.47;5060641;28;19924;-71
2022/12/13 10:59:37;;;;;;;;;;;;;;;-3.41;100.00;101148.53;5043990;28;19924;-72
2022/12/13 11:02:21;;;;;;;;;;;;;;;-3.35;100.00;101146.84;5041843;28;20860;-72
2022/12/13 11:04:46;;;;;;;;;;;;;;;-3.32;100.00;101147.78;5041710;28;19940;-72
2022/12/13 11:07:26;;;;;;;;;;;;;;;-3.28;100.00;101146.13;5034103;28;20815;-73
2022/12/13 11:09:52;;;;;;;;;;;;;;;-3.27;100.00;101146.16;5063337;28;20378;-73
2022/12/13 11:12:21;;;;;;;;;;;;;;;-3.25;100.00;101143.59;5062699;28;19924;-72
2022/12/13 11:14:49;;;;;;;;;;;;;;;-3.21;100.00;101142.78;5063221;28;20342;-72
2022/12/13 11:17:15;;;;;;;;;;;;;;;-3.19;100.00;101138.50;5048697;28;21458;-74
2022/12/13 11:19:44;;;;;;;;;;;;;;;-3.14;100.00;101133.41;5060368;28;19928;-73
2022/12/13 11:22:17;;;;;;;;;;;;;;;-3.12;100.00;101133.44;5049645;28;20342;-73
2022/12/13 11:24:42;;;;;;;;;;;;;;;-3.09;100.00;101125.69;5058064;28;20477;-72
2022/12/13 11:27:23;;;;;;;;;;;;;;;-3.06;100.00;101125.75;5041622;28;19934;-74
2022/12/13 11:29:57;;;;;;;;;;;;;;;-3.00;100.00;101131.00;5059631;28;19946;-72
2022/12/13 11:32:27;;;;;;;;;;;;;;;-2.96;100.00;101132.81;5062290;28;20190;-73
2022/12/13 11:35:10;;;;;;;;;;;;;;;-2.93;100.00;101129.41;5026115;28;19979;-73
2022/12/13 11:37:39;;;;;;;;;;;;;;;-2.89;100.00;101123.41;5061476;28;19929;-73
2022/12/13 11:40:09;;;;;;;;;;;;;;;-2.88;100.00;101122.56;5062849;28;19928;-73
2022/12/13 11:42:46;;;;;;;;;;;;;;;-2.84;100.00;101115.72;5041657;28;19920;-73
2022/12/13 11:45:18;;;;;;;;;;;;;;;-2.80;100.00;101120.06;5060395;28;19935;-73
2022/12/13 11:47:47;;;;;;;;;;;;;;;-2.77;100.00;101114.94;5042353;28;19924;-73
2022/12/13 11:50:20;;;;;;;;;;;;;;;-2.76;100.00;101116.69;5044514;28;19930;-73
2022/12/13 11:52:52;;;;;;;;;;;;;;;-2.75;100.00;101114.13;5041806;28;19928;-73
2022/12/13 11:55:41;;;;;;;;;;;;;;;-2.70;100.00;101115.88;5027241;28;20306;-73
2022/12/13 11:58:06;;;;;;;;;;;;;;;-2.67;100.00;101106.44;5060651;28;19928;-73
2022/12/13 12:00:39;;;;;;;;;;;;;;;-2.64;100.00;101105.59;5061707;28;20335;-73
2022/12/13 12:03:24;;;;;;;;;;;;;;;-2.64;100.00;101093.53;5041488;28;19931;-73
2022/12/13 12:05:51;;;;;;;;;;;;;;;-2.62;100.00;101090.97;5034246;28;19932;-73
2022/12/13 12:08:22;;;;;;;;;;;;;;;-2.60;100.00;101092.69;5040170;28;19951;-73
2022/12/13 12:10:48;;;;;;;;;;;;;;;-2.56;100.00;101088.41;5051100;28;19934;-73
2022/12/13 12:13:16;;;;;;;;;;;;;;;-2.53;100.00;101090.19;5037660;28;19928;-73
2022/12/13 12:15:44;;;;;;;;;;;;;;;-2.50;100.00;101091.09;5057095;28;20023;-73
2022/12/13 12:18:14;;;;;;;;;;;;;;;-2.49;100.00;101091.97;5039162;28;19936;-73
2022/12/13 12:21:06;;;;;;;;;;;;;;;-2.46;100.00;101084.22;5040561;28;19924;-73
2022/12/13 12:23:31;;;;;;;;;;;;;;;-2.41;100.00;101082.56;5031311;28;20387;-73
2022/12/13 12:26:00;;;;;;;;;;;;;;;-2.38;100.00;101077.44;5059875;28;19986;-73
2022/12/13 12:28:25;;;;;;;;;;;;;;;-2.33;100.00;101069.69;5060626;28;19943;-73
2022/12/13 12:31:00;;;;;;;;;;;;;;;-2.31;100.00;101067.97;5059314;28;19924;-73
2022/12/13 12:33:31;;;;;;;;;;;;;;;-2.28;100.00;101073.22;5055606;28;19935;-73
2022/12/13 12:36:08;;;;;;;;;;;;;;;-2.24;100.00;101077.56;5042786;28;19982;-74